CheckWX is a tool to help pilots better visualize weather data.  It is not intended as a substitute for an official pre-flight weather briefing.

21:01:53 UTC

FQTT METAR
Chingozi Airport
Tete, Mozambique
Current

1 hour ago

FQTT 232000Z 00000KT CAVOK 22/20 Q1017
Observed
Apr-23 @ 20:00 UTC
Visibility
10,000+ meters
Flight Rules
VFR
Cloud Levels
  • Clear skies
Temperature
22°C / 72°F
Dewpoint
20°C / 68°F
Humidity
88%
Altimeter
30.03" Hg
Pressure
1016.92 hPa
Previous

2 hours ago

FQTT 231900Z 08008KT CAVOK 26/19 Q1017
Observed
Apr-23 @ 19:00 UTC
Wind
  • 080° at 8 KTS
Visibility
10,000+ meters
Flight Rules
VFR
Cloud Levels
  • Clear skies
Temperature
26°C / 79°F
Dewpoint
19°C / 66°F
Humidity
65%
Altimeter
30.03" Hg
Pressure
1016.92 hPa
Previous

3 hours ago

FQTT 231800Z 09007KT 9999 FEW020 26/19 Q1016
Observed
Apr-23 @ 18:00 UTC
Wind
  • 090° at 7 KTS
Visibility
10,000+ meters
Flight Rules
VFR
Cloud Levels
  • Few at 2,000' AGL
Temperature
26°C / 79°F
Dewpoint
19°C / 66°F
Humidity
65%
Altimeter
30" Hg
Pressure
1015.92 hPa